Time;durP1;ratioP1;P1;durP2;ratioP2;P2;SDS_P1;SDS_P2;PMS_P1;PMS_P2;Temp;Humidity;BMP_temperature;BMP_pressure;BME280_temperature;BME280_humidity;BME280_pressure;Samples;Min_cycle;Max_cycle;Signal;HPM_P1;HPM_P2
2022/11/06 00:00:52;;;;;;;9.13;6.73;;;;;;;9.07;77.24;100315.25;5088143;28;20514;-63
2022/11/06 00:03:19;;;;;;;7.03;6.33;;;;;;;8.94;77.70;100303.91;5097595;28;20497;-65
2022/11/06 00:08:34;;;;;;;10.00;6.73;;;;;;;8.94;77.73;100310.13;5082344;28;20451;-65
2022/11/06 00:11:00;;;;;;;9.77;6.97;;;;;;;8.92;77.77;100314.72;5081425;28;20492;-66
2022/11/06 00:13:27;;;;;;;9.90;7.67;;;;;;;8.88;78.13;100302.63;5083117;28;20458;-65
2022/11/06 00:15:54;;;;;;;9.40;6.40;;;;;;;8.84;78.32;100307.38;5080750;28;20713;-65
2022/11/06 00:18:21;;;;;;;11.70;7.00;;;;;;;8.76;78.50;100312.47;5095841;28;20527;-65
2022/11/06 00:20:49;;;;;;;9.70;6.77;;;;;;;8.86;78.40;100297.41;5081843;28;20825;-66
2022/11/06 00:23:15;;;;;;;9.50;6.30;;;;;;;8.75;78.63;100296.63;5083732;28;20463;-66
2022/11/06 00:25:42;;;;;;;8.30;6.90;;;;;;;8.76;78.68;100296.50;5096936;28;20497;-66
2022/11/06 00:28:12;;;;;;;7.63;6.83;;;;;;;8.78;78.39;100285.69;5096915;28;20892;-65
2022/11/06 00:30:39;;;;;;;12.57;7.03;;;;;;;8.71;78.59;100298.69;5093533;28;20532;-65
2022/11/06 00:33:06;;;;;;;13.30;8.40;;;;;;;8.79;78.43;100296.25;5084276;28;20529;-65
2022/11/06 00:35:33;;;;;;;11.73;7.50;;;;;;;8.76;78.63;100285.81;5094875;28;20499;-66
2022/11/06 00:38:01;;;;;;;9.13;6.07;;;;;;;8.78;78.37;100291.88;5080656;28;20551;-65
2022/11/06 00:40:28;;;;;;;11.37;6.60;;;;;;;8.80;78.06;100281.09;5079559;28;20460;-66
2022/11/06 00:42:55;;;;;;;11.07;6.50;;;;;;;8.81;78.21;100282.78;5086780;28;20542;-66
2022/11/06 00:45:22;;;;;;;8.30;7.17;;;;;;;8.77;78.51;100281.38;5078045;28;20452;-67
2022/11/06 00:47:49;;;;;;;11.40;6.80;;;;;;;8.89;77.97;100292.78;5077488;28;20571;-67
2022/11/06 00:50:16;;;;;;;8.27;6.80;;;;;;;8.84;78.08;100298.53;5090862;28;20503;-65
2022/11/06 00:52:43;;;;;;;7.20;5.77;;;;;;;8.83;78.27;100287.00;5095364;28;20456;-66
2022/11/06 00:55:11;;;;;;;10.30;7.40;;;;;;;8.86;77.91;100300.09;5058758;28;20552;-68
2022/11/06 00:57:37;;;;;;;8.37;6.70;;;;;;;8.86;78.09;100296.59;5072322;28;20516;-67
2022/11/06 01:00:06;;;;;;;10.20;7.10;;;;;;;8.86;78.52;100301.91;5083819;28;20440;-67
2022/11/06 01:02:32;;;;;;;13.03;7.40;;;;;;;8.85;78.40;100292.22;5081918;28;20518;-66
2022/11/06 01:04:59;;;;;;;7.60;6.30;;;;;;;8.84;78.08;100306.53;5083878;28;20491;-66
2022/11/06 01:07:25;;;;;;;8.00;6.83;;;;;;;8.82;78.13;100303.16;5085140;28;20544;-66
2022/11/06 01:09:52;;;;;;;9.77;6.83;;;;;;;8.80;77.94;100303.28;5082524;28;20476;-66
2022/11/06 01:12:20;;;;;;;8.40;6.00;;;;;;;8.90;78.07;100300.66;5088378;28;20539;-66
2022/11/06 01:14:47;;;;;;;9.47;6.27;;;;;;;8.94;78.04;100309.25;5082928;28;21048;-67
2022/11/06 01:17:13;;;;;;;9.33;6.63;;;;;;;8.83;78.21;100307.50;5094248;28;20507;-65
2022/11/06 01:19:40;;;;;;;9.33;6.70;;;;;;;8.92;78.37;100300.53;5084156;28;21044;-66
2022/11/06 01:22:07;;;;;;;18.33;7.10;;;;;;;8.80;77.98;100303.28;5101877;28;20503;-66
2022/11/06 01:24:34;;;;;;;8.87;6.53;;;;;;;8.79;78.39;100300.75;5098568;28;20875;-66
2022/11/06 01:27:01;;;;;;;9.50;6.50;;;;;;;8.77;78.36;100284.03;5086865;28;20940;-64
2022/11/06 01:29:29;;;;;;;8.87;6.40;;;;;;;8.81;78.66;100293.44;5084285;28;20531;-66
2022/11/06 01:31:56;;;;;;;11.67;8.00;;;;;;;8.85;78.77;100289.53;5087811;28;20504;-65
2022/11/06 01:34:22;;;;;;;9.10;6.73;;;;;;;8.85;78.43;100287.75;5083913;28;20487;-64
2022/11/06 01:36:49;;;;;;;8.33;6.40;;;;;;;8.81;78.38;100288.13;5101000;28;20475;-65
2022/11/06 01:39:16;;;;;;;10.40;6.77;;;;;;;8.87;78.51;100284.94;5090722;28;20486;-65
2022/11/06 01:41:45;;;;;;;12.93;7.30;;;;;;;8.75;79.20;100280.63;5102471;28;20503;-63
2022/11/06 01:44:45;;;;;;;9.47;7.07;;;;;;;8.80;78.80;100283.75;5099083;28;20449;-65
2022/11/06 01:47:21;;;;;;;8.60;6.50;;;;;;;8.69;79.48;100278.47;5075801;28;20515;-66
2022/11/06 01:49:50;;;;;;;12.03;7.37;;;;;;;8.58;79.78;100276.72;5089999;28;20479;-66
2022/11/06 01:52:17;;;;;;;10.30;6.87;;;;;;;8.70;79.30;100281.03;5099091;28;21028;-66
2022/11/06 01:54:46;;;;;;;8.80;7.60;;;;;;;8.72;79.33;100283.56;5101371;28;20852;-66
2022/11/06 01:57:13;;;;;;;9.43;6.47;;;;;;;8.61;79.71;100271.97;5087027;28;20519;-66
2022/11/06 01:59:43;;;;;;;10.07;6.90;;;;;;;8.66;79.58;100283.09;5100177;28;20487;-66
2022/11/06 02:02:10;;;;;;;9.13;6.87;;;;;;;8.54;79.95;100265.47;5083899;28;20543;-65
2022/11/06 02:04:41;;;;;;;9.23;6.60;;;;;;;8.59;79.92;100273.06;5095207;28;20479;-65
2022/11/06 02:07:08;;;;;;;12.70;6.77;;;;;;;8.53;80.35;100246.94;5085457;28;20519;-65
2022/11/06 02:09:35;;;;;;;7.30;6.60;;;;;;;8.51;80.41;100247.06;5093247;28;20512;-65
2022/11/06 02:12:06;;;;;;;9.50;7.00;;;;;;;8.50;80.87;100248.03;5085702;28;20571;-63
2022/11/06 02:14:37;;;;;;;13.77;7.17;;;;;;;8.47;80.82;100240.28;5088791;28;20443;-66
2022/11/06 02:17:08;;;;;;;9.20;7.20;;;;;;;8.52;80.68;100239.91;5095390;28;20899;-66
2022/11/06 02:19:54;;;;;;;11.23;7.13;;;;;;;8.47;81.02;100232.28;5077730;28;20549;-66
2022/11/06 02:22:37;;;;;;;14.33;7.13;;;;;;;8.51;80.69;100224.91;5099180;28;20511;-65
2022/11/06 02:25:12;;;;;;;13.20;6.67;;;;;;;8.50;80.79;100237.38;5089209;28;20455;-67
2022/11/06 02:27:41;;;;;;;9.43;7.07;;;;;;;8.50;80.87;100233.88;5065291;28;20961;-66
2022/11/06 02:30:09;;;;;;;10.23;6.90;;;;;;;8.47;80.93;100234.94;5089613;28;20536;-67
2022/11/06 02:32:39;;;;;;;10.10;7.00;;;;;;;8.50;80.79;100224.03;5091459;28;20523;-64
2022/11/06 02:35:15;;;;;;;11.23;6.60;;;;;;;8.48;80.84;100218.84;5097669;28;20530;-67
2022/11/06 02:37:42;;;;;;;9.40;6.37;;;;;;;8.46;80.92;100209.28;5084434;28;20983;-67
2022/11/06 02:40:10;;;;;;;8.53;6.30;;;;;;;8.35;81.27;100210.16;5092267;28;20459;-67
2022/11/06 02:42:38;;;;;;;8.77;6.20;;;;;;;8.44;81.01;100205.91;5087960;28;20507;-66
2022/11/06 02:45:08;;;;;;;9.37;6.40;;;;;;;8.36;81.54;100203.00;5078474;28;20525;-65
2022/11/06 02:47:35;;;;;;;13.13;6.77;;;;;;;8.42;81.60;100210.47;5080954;28;20468;-66
2022/11/06 02:50:05;;;;;;;6.93;5.43;;;;;;;8.42;81.16;100216.69;5090877;28;20487;-63
2022/11/06 02:52:35;;;;;;;7.70;6.80;;;;;;;8.38;81.50;100212.56;5080427;28;20492;-65
2022/11/06 02:55:06;;;;;;;7.80;5.33;;;;;;;8.48;81.13;100216.19;5084682;28;20440;-67
2022/11/06 02:57:36;;;;;;;9.00;6.57;;;;;;;8.46;81.28;100214.63;5093744;28;21117;-66
2022/11/06 03:00:09;;;;;;;10.97;6.80;;;;;;;8.49;81.17;100222.38;5098530;28;20531;-67
2022/11/06 03:02:40;;;;;;;9.30;6.37;;;;;;;8.37;81.63;100224.19;5084577;28;20477;-66
2022/11/06 03:05:12;;;;;;;10.27;5.93;;;;;;;8.39;81.36;100213.41;5079800;28;20968;-66
2022/11/06 03:07:43;;;;;;;10.57;6.90;;;;;;;8.39;81.61;100210.75;5093665;28;20450;-66
2022/11/06 03:10:11;;;;;;;8.50;5.60;;;;;;;8.46;81.29;100218.13;5097846;28;20495;-67
2022/11/06 03:12:45;;;;;;;10.80;6.30;;;;;;;8.41;81.76;100216.78;5081739;28;20492;-66
2022/11/06 03:15:20;;;;;;;9.97;6.03;;;;;;;8.40;81.78;100218.63;5081657;28;20468;-66
2022/11/06 03:17:51;;;;;;;9.13;5.90;;;;;;;8.38;81.52;100214.38;5098522;28;20522;-66
2022/11/06 03:20:25;;;;;;;9.43;6.10;;;;;;;8.34;81.67;100215.63;5098683;28;20500;-66
2022/11/06 03:22:56;;;;;;;8.70;7.20;;;;;;;8.31;82.01;100206.03;5067608;28;20456;-66
2022/11/06 03:25:25;;;;;;;8.13;5.30;;;;;;;8.29;82.30;100202.66;5100597;28;20483;-65
2022/11/06 03:28:01;;;;;;;7.97;5.63;;;;;;;8.28;82.23;100185.84;5098263;28;20479;-66
2022/11/06 03:30:29;;;;;;;9.30;5.23;;;;;;;8.25;82.11;100183.44;5092133;28;20502;-65
2022/11/06 03:32:59;;;;;;;8.93;6.30;;;;;;;8.19;82.57;100183.94;5067860;28;20519;-65
2022/11/06 03:35:28;;;;;;;8.63;5.50;;;;;;;8.27;82.34;100193.97;5088406;28;20479;-67
2022/11/06 03:37:58;;;;;;;13.93;6.60;;;;;;;8.23;82.32;100193.38;5097533;28;21030;-66
2022/11/06 03:40:27;;;;;;;8.33;5.50;;;;;;;8.20;82.37;100182.97;5099559;28;20467;-65
2022/11/06 03:42:55;;;;;;;9.90;5.77;;;;;;;8.19;82.64;100191.91;5100781;28;20514;-66
2022/11/06 03:45:24;;;;;;;8.37;5.97;;;;;;;8.14;82.78;100183.47;5099173;28;20503;-66
2022/11/06 03:47:54;;;;;;;10.27;5.43;;;;;;;8.15;82.77;100187.81;5093500;28;20535;-66
2022/11/06 03:50:24;;;;;;;12.27;5.63;;;;;;;8.13;82.61;100179.13;5081878;28;20458;-67
2022/11/06 03:52:53;;;;;;;10.03;5.10;;;;;;;8.19;82.34;100193.75;5084214;28;20483;-66
2022/11/06 03:55:24;;;;;;;7.70;5.07;;;;;;;8.24;82.10;100191.56;5097836;28;20451;-66
2022/11/06 03:57:53;;;;;;;6.60;4.60;;;;;;;8.23;81.87;100181.88;5081826;28;20917;-66
2022/11/06 04:00:20;;;;;;;7.73;4.63;;;;;;;8.25;82.05;100196.75;5094991;28;20443;-68
2022/11/06 04:02:50;;;;;;;11.70;5.10;;;;;;;8.20;81.97;100190.97;5088978;28;20514;-68
2022/11/06 04:05:23;;;;;;;6.43;4.40;;;;;;;8.10;82.26;100182.03;5095377;28;20460;-69
2022/11/06 04:16:07;;;;;;;6.13;4.17;;;;;;;8.30;81.77;100189.22;5089226;28;20515;-67
2022/11/06 04:18:33;;;;;;;9.90;5.53;;;;;;;8.37;81.09;100191.41;5080113;28;20560;-67
2022/11/06 04:21:24;;;;;;;6.17;4.43;;;;;;;8.51;80.65;100191.09;5081863;28;20492;-67
2022/11/06 04:26:58;;;;;;;5.83;4.00;;;;;;;8.48;80.16;100186.88;5090656;28;20483;-67
2022/11/06 04:29:42;;;;;;;6.20;4.03;;;;;;;8.62;79.68;100175.03;5098846;28;20455;-67
2022/11/06 04:32:12;;;;;;;12.77;4.90;;;;;;;8.55;79.88;100167.72;5072751;28;20506;-67
2022/11/06 04:34:43;;;;;;;8.77;3.70;;;;;;;8.48;80.25;100175.38;5069920;28;20463;-67
2022/11/06 04:37:15;;;;;;;5.70;3.80;;;;;;;8.58;80.06;100181.63;5093251;28;20502;-67
2022/11/06 04:39:50;;;;;;;5.63;3.13;;;;;;;8.53;80.13;100186.50;5095289;28;20480;-66
2022/11/06 04:42:22;;;;;;;8.63;4.37;;;;;;;8.56;79.99;100183.56;5074508;28;20586;-67
2022/11/06 04:44:51;;;;;;;14.27;4.60;;;;;;;8.50;79.94;100181.41;5103464;28;20451;-66
2022/11/06 04:47:19;;;;;;;4.43;4.03;;;;;;;8.39;79.89;100174.28;5091521;28;20508;-67
2022/11/06 04:49:46;;;;;;;9.83;3.97;;;;;;;8.64;79.43;100183.75;5089535;28;20480;-67
2022/11/06 04:52:16;;;;;;;9.93;3.77;;;;;;;8.39;80.20;100184.94;5085971;28;20547;-67
2022/11/06 04:54:44;;;;;;;12.40;4.07;;;;;;;8.34;80.34;100183.66;5093351;28;20472;-66
2022/11/06 04:57:11;;;;;;;4.67;4.07;;;;;;;8.44;80.01;100173.94;5084651;28;20499;-67
2022/11/06 04:59:37;;;;;;;5.77;3.40;;;;;;;8.34;80.54;100179.16;5091971;28;20525;-67
2022/11/06 05:02:04;;;;;;;7.50;4.80;;;;;;;8.25;80.64;100177.28;5063401;28;20469;-66
2022/11/06 05:04:31;;;;;;;5.13;3.80;;;;;;;8.20;80.87;100177.66;5096406;28;20482;-65
2022/11/06 05:06:58;;;;;;;5.70;3.83;;;;;;;8.16;81.42;100173.56;5103548;28;20514;-65
2022/11/06 05:09:26;;;;;;;5.67;4.30;;;;;;;8.11;81.35;100181.06;5085776;28;20472;-65
2022/11/06 05:11:52;;;;;;;5.80;3.80;;;;;;;8.13;81.43;100176.47;5083242;28;20503;-66
2022/11/06 05:14:19;;;;;;;7.43;3.63;;;;;;;8.13;81.67;100165.81;5096830;28;20476;-65
2022/11/06 05:16:45;;;;;;;8.10;4.10;;;;;;;8.20;81.15;100174.16;5085341;28;20558;-66
2022/11/06 05:19:12;;;;;;;4.47;3.70;;;;;;;8.23;81.09;100172.06;5102128;28;20518;-63
2022/11/06 05:24:23;;;;;;;5.90;3.83;;;;;;;8.25;81.19;100175.44;5090684;28;20994;-66
2022/11/06 05:26:51;;;;;;;7.83;3.80;;;;;;;8.24;81.26;100171.06;5083588;28;20507;-66
2022/11/06 05:29:17;;;;;;;6.93;3.60;;;;;;;8.23;80.86;100163.25;5096049;28;20533;-65
2022/11/06 05:31:44;;;;;;;9.00;4.23;;;;;;;8.13;81.33;100165.81;5090768;28;20558;-66
2022/11/06 05:34:11;;;;;;;6.50;4.40;;;;;;;8.09;81.93;100154.56;5098168;28;20483;-67
2022/11/06 05:36:37;;;;;;;6.03;3.80;;;;;;;8.05;81.85;100154.94;5101784;28;20570;-67
2022/11/06 05:39:04;;;;;;;5.80;3.70;;;;;;;7.97;82.19;100144.94;5101633;28;20590;-66
2022/11/06 05:41:31;;;;;;;4.90;3.13;;;;;;;7.88;82.62;100157.19;5102601;28;20498;-66
2022/11/06 05:43:59;;;;;;;5.60;4.03;;;;;;;7.99;82.10;100148.31;5092612;28;20543;-64
2022/11/06 05:46:26;;;;;;;9.00;5.00;;;;;;;7.94;82.50;100139.03;5102507;28;20503;-66
2022/11/06 05:48:52;;;;;;;6.30;3.43;;;;;;;7.92;82.65;100139.16;5097904;28;20448;-67
2022/11/06 05:51:19;;;;;;;4.33;3.10;;;;;;;7.89;82.80;100132.25;5083176;28;20500;-67
2022/11/06 05:53:46;;;;;;;5.30;3.30;;;;;;;7.80;83.10;100130.34;5084301;28;20452;-65
2022/11/06 05:56:12;;;;;;;9.43;3.97;;;;;;;7.72;83.81;100124.81;5083383;28;20567;-65
2022/11/06 05:58:39;;;;;;;6.03;4.17;;;;;;;7.76;83.66;100136.91;5096845;28;20526;-66
2022/11/06 06:01:07;;;;;;;9.43;4.43;;;;;;;7.74;83.55;100141.47;5099730;28;20495;-66
2022/11/06 06:03:33;;;;;;;7.43;3.90;;;;;;;7.81;83.56;100144.50;5087698;28;20488;-67
2022/11/06 06:06:00;;;;;;;6.07;3.70;;;;;;;7.71;84.00;100123.13;5099074;28;20861;-66
2022/11/06 06:08:27;;;;;;;8.43;3.80;;;;;;;7.76;84.08;100133.38;5097609;28;20523;-66
2022/11/06 06:10:53;;;;;;;5.17;4.60;;;;;;;7.70;84.32;100116.94;5082546;28;20582;-65
2022/11/06 06:13:20;;;;;;;10.43;6.47;;;;;;;7.84;84.02;100121.13;5085706;28;20599;-66
2022/11/06 06:15:46;;;;;;;9.07;7.10;;;;;;;7.86;83.72;100119.22;5085254;28;20496;-66
2022/11/06 06:18:14;;;;;;;11.33;7.50;;;;;;;7.89;83.76;100123.41;5089233;28;20889;-66
2022/11/06 06:20:41;;;;;;;12.47;8.30;;;;;;;7.90;83.50;100117.97;5101282;28;20487;-67
2022/11/06 06:23:08;;;;;;;13.33;6.73;;;;;;;7.92;83.54;100121.34;5100640;28;20863;-67
2022/11/06 06:25:35;;;;;;;11.87;5.80;;;;;;;7.88;83.71;100111.94;5097825;28;20493;-66
2022/11/06 06:28:01;;;;;;;13.93;5.87;;;;;;;7.95;83.23;100114.94;5098792;28;20460;-67
2022/11/06 06:30:28;;;;;;;6.53;4.57;;;;;;;7.89;83.08;100110.94;5061954;28;20499;-66
2022/11/06 06:32:54;;;;;;;6.23;3.70;;;;;;;7.98;83.24;100113.84;5087314;28;20479;-66
2022/11/06 06:35:22;;;;;;;5.73;4.20;;;;;;;7.92;83.17;100123.19;5099004;28;20479;-66
2022/11/06 06:37:53;;;;;;;7.93;3.70;;;;;;;7.99;83.15;100121.69;5082540;28;20515;-67
2022/11/06 06:40:20;;;;;;;5.47;4.10;;;;;;;8.03;82.72;100114.28;5081952;28;20487;-65
2022/11/06 06:42:46;;;;;;;6.30;3.90;;;;;;;8.09;82.54;100114.63;5090442;28;21002;-65
2022/11/06 06:45:13;;;;;;;6.10;4.47;;;;;;;8.16;82.14;100116.75;5080910;28;20524;-66
2022/11/06 06:47:40;;;;;;;4.27;3.23;;;;;;;8.08;82.30;100120.91;5095259;28;20439;-66
2022/11/06 06:50:08;;;;;;;6.13;3.40;;;;;;;8.26;81.62;100131.88;5100695;28;20538;-65
2022/11/06 06:52:37;;;;;;;4.90;3.90;;;;;;;8.35;81.25;100126.72;5088333;28;20457;-64
2022/11/06 06:55:04;;;;;;;5.43;3.50;;;;;;;8.44;80.67;100136.66;5082183;28;20441;-66
2022/11/06 06:57:31;;;;;;;6.60;2.70;;;;;;;8.56;79.87;100129.41;5081059;28;20496;-66
2022/11/06 06:59:57;;;;;;;6.03;3.57;;;;;;;8.51;80.10;100131.66;5082483;28;20516;-66
2022/11/06 07:02:24;;;;;;;7.80;3.40;;;;;;;8.67;79.52;100129.34;5092571;28;20779;-66
2022/11/06 07:04:51;;;;;;;8.60;3.60;;;;;;;8.67;79.65;100124.03;5101117;28;20515;-65
2022/11/06 07:07:17;;;;;;;9.50;3.70;;;;;;;8.79;78.46;100122.97;5092844;28;20507;-66
2022/11/06 07:09:45;;;;;;;4.33;3.03;;;;;;;8.93;78.78;100123.59;5084292;28;20556;-66
2022/11/06 07:12:12;;;;;;;8.23;3.03;;;;;;;9.10;77.64;100125.66;5088711;28;20566;-67
2022/11/06 07:14:38;;;;;;;6.30;2.90;;;;;;;9.05;77.89;100118.03;5089541;28;20501;-67
2022/11/06 07:17:05;;;;;;;6.80;3.50;;;;;;;9.02;77.93;100120.97;5080376;28;21079;-67
2022/11/06 07:19:31;;;;;;;3.70;2.90;;;;;;;9.05;77.87;100120.69;5086119;28;20543;-66
2022/11/06 07:21:58;;;;;;;5.40;3.20;;;;;;;9.19;77.29;100129.34;5079524;28;20495;-66
2022/11/06 07:24:24;;;;;;;6.30;2.97;;;;;;;9.13;77.27;100116.53;5081956;28;20483;-66
2022/11/06 07:26:52;;;;;;;4.70;3.23;;;;;;;9.71;76.03;100113.19;5101240;28;20503;-67
2022/11/06 07:29:19;;;;;;;4.70;2.87;;;;;;;10.47;72.17;100116.00;5100902;28;20455;-67
2022/11/06 07:31:48;;;;;;;7.97;3.03;;;;;;;11.20;68.23;100117.19;5093244;28;21026;-64
2022/11/06 07:34:14;;;;;;;4.80;2.60;;;;;;;10.29;71.33;100107.00;5080872;28;20453;-67
2022/11/06 07:36:41;;;;;;;5.80;3.03;;;;;;;9.89;73.53;100107.97;5081627;28;20595;-67
2022/11/06 07:39:08;;;;;;;5.13;3.70;;;;;;;9.76;73.86;100114.44;5089986;28;20633;-66
2022/11/06 07:41:34;;;;;;;6.23;2.67;;;;;;;9.46;74.35;100107.38;5083966;28;20508;-66
2022/11/06 07:44:02;;;;;;;2.80;2.30;;;;;;;9.60;74.28;100116.81;5081227;28;20507;-66
2022/11/06 07:46:29;;;;;;;3.67;2.17;;;;;;;9.69;74.29;100105.31;5097089;28;20503;-65
2022/11/06 07:48:55;;;;;;;2.97;2.37;;;;;;;9.66;73.99;100112.75;5080431;28;20486;-68
2022/11/06 07:51:22;;;;;;;6.03;2.97;;;;;;;10.32;70.91;100112.09;5080447;28;20483;-66
2022/11/06 07:53:49;;;;;;;5.33;2.90;;;;;;;10.51;70.11;100117.41;5079087;28;20491;-68
2022/11/06 07:56:15;;;;;;;8.80;3.10;;;;;;;11.20;68.61;100110.00;5080595;28;20472;-67
2022/11/06 07:58:42;;;;;;;7.23;2.80;;;;;;;13.43;60.54;100110.00;5080963;28;20468;-67
2022/11/06 08:01:14;;;;;;;4.63;2.53;;;;;;;13.12;59.41;100108.69;5078897;28;20870;-66
2022/11/06 08:03:41;;;;;;;5.17;2.07;;;;;;;14.12;56.30;100111.47;5072819;28;20539;-71
2022/11/06 08:06:08;;;;;;;7.03;2.13;;;;;;;14.55;54.21;100105.94;5084668;28;20468;-74
2022/11/06 08:08:34;;;;;;;3.60;2.20;;;;;;;15.08;52.88;100111.72;5091559;28;20488;-77
2022/11/06 08:11:02;;;;;;;4.30;2.20;;;;;;;15.32;51.30;100101.88;5080173;28;20500;-68
2022/11/06 08:13:28;;;;;;;4.33;2.00;;;;;;;15.60;50.53;100108.44;5083650;28;20452;-67
2022/11/06 08:15:55;;;;;;;2.63;1.87;;;;;;;16.16;48.91;100099.34;5084530;28;20535;-68
2022/11/06 08:18:23;;;;;;;4.50;2.47;;;;;;;15.36;49.79;100112.13;5083518;28;20492;-69
2022/11/06 08:20:52;;;;;;;4.20;2.60;;;;;;;14.12;53.28;100099.88;5093913;28;20527;-68
2022/11/06 08:23:19;;;;;;;3.73;1.97;;;;;;;15.62;50.40;100100.19;5078887;28;20485;-68
2022/11/06 08:25:46;;;;;;;4.40;1.90;;;;;;;16.89;47.13;100105.97;5084429;28;20837;-67
2022/11/06 08:28:12;;;;;;;3.90;2.00;;;;;;;15.56;49.79;100114.38;5089411;28;20473;-68
2022/11/06 08:30:39;;;;;;;2.80;1.97;;;;;;;16.25;47.96;100111.78;5089042;28;20476;-68
2022/11/06 08:33:07;;;;;;;4.00;2.10;;;;;;;16.50;47.51;100108.84;5097233;28;20467;-67
2022/11/06 08:35:35;;;;;;;2.53;1.87;;;;;;;16.75;46.59;100099.50;5090771;28;20485;-67
2022/11/06 08:38:02;;;;;;;6.43;2.33;;;;;;;16.37;46.86;100101.41;5084878;28;20507;-67
2022/11/06 08:40:29;;;;;;;2.77;2.00;;;;;;;14.36;52.10;100093.66;5083809;28;20480;-67
2022/11/06 08:42:59;;;;;;;6.57;2.13;;;;;;;14.88;51.54;100104.03;5083429;28;20534;-76
2022/11/06 08:45:25;;;;;;;7.30;2.17;;;;;;;14.86;51.20;100097.16;5070806;28;20548;-75
2022/11/06 08:47:52;;;;;;;5.00;1.70;;;;;;;15.48;49.27;100076.69;5078919;28;20511;-74
2022/11/06 08:50:19;;;;;;;2.37;1.50;;;;;;;15.37;49.69;100086.84;5087412;28;20487;-74
2022/11/06 08:52:47;;;;;;;7.70;2.63;;;;;;;14.96;50.57;100076.25;5084268;28;20479;-75
2022/11/06 08:55:13;;;;;;;3.73;2.53;;;;;;;15.86;48.52;100093.00;5083929;28;20448;-75
2022/11/06 08:57:40;;;;;;;3.43;1.77;;;;;;;15.96;48.79;100072.03;5088079;28;20443;-73
2022/11/06 09:00:07;;;;;;;3.33;1.97;;;;;;;15.73;48.62;100075.53;5103408;28;20571;-72
2022/11/06 09:02:34;;;;;;;3.40;1.70;;;;;;;15.69;49.05;100066.13;5084854;28;20454;-75
2022/11/06 09:05:00;;;;;;;3.03;1.60;;;;;;;16.15;48.40;100057.22;5098502;28;20456;-74
2022/11/06 09:07:27;;;;;;;3.33;1.53;;;;;;;17.02;45.75;100061.28;5087016;28;20513;-74
2022/11/06 09:09:55;;;;;;;3.63;1.80;;;;;;;17.42;44.44;100069.88;5082848;28;20464;-75
2022/11/06 09:12:22;;;;;;;2.97;1.70;;;;;;;16.97;45.33;100066.38;5083622;28;20498;-74
2022/11/06 09:14:48;;;;;;;4.17;1.60;;;;;;;17.36;44.61;100074.19;5086884;28;20510;-75
2022/11/06 09:17:15;;;;;;;3.03;1.77;;;;;;;17.56;43.63;100066.28;5088611;28;20470;-75
2022/11/06 09:19:42;;;;;;;3.40;1.73;;;;;;;17.22;44.09;100054.25;5084472;28;20483;-75
2022/11/06 09:22:09;;;;;;;3.33;1.80;;;;;;;17.76;43.42;100049.44;5084044;28;20486;-75
2022/11/06 09:24:35;;;;;;;8.00;1.67;;;;;;;18.40;42.30;100053.97;5087650;28;20463;-75
2022/11/06 09:27:03;;;;;;;5.40;1.80;;;;;;;17.85;43.06;100046.41;5086520;28;20582;-75
2022/11/06 09:29:30;;;;;;;4.50;1.80;;;;;;;17.60;43.80;100055.94;5079700;28;20940;-75
2022/11/06 09:31:56;;;;;;;2.80;1.40;;;;;;;17.21;43.90;100049.03;5082420;28;20503;-75
2022/11/06 09:34:23;;;;;;;3.63;1.83;;;;;;;16.79;45.52;100058.63;5081663;28;20806;-74
2022/11/06 09:36:50;;;;;;;3.93;1.83;;;;;;;16.48;45.51;100062.34;5084847;28;20478;-75
2022/11/06 09:39:16;;;;;;;2.33;2.07;;;;;;;15.69;47.27;100058.03;5085095;28;20507;-74
2022/11/06 09:41:50;;;;;;;2.93;1.90;;;;;;;15.90;47.48;100045.78;5082593;28;20561;-75
2022/11/06 09:44:29;;;;;;;4.93;2.13;;;;;;;16.26;46.54;100055.94;5070646;28;20467;-73
2022/11/06 09:46:57;;;;;;;3.13;1.70;;;;;;;17.10;45.19;100064.72;5080909;28;20485;-74
2022/11/06 09:49:30;;;;;;;3.93;2.63;;;;;;;17.95;43.05;100051.56;5074626;28;20467;-74
2022/11/06 09:52:01;;;;;;;2.00;1.80;;;;;;;17.68;42.93;100050.41;5086087;28;21177;-74
2022/11/06 09:54:31;;;;;;;3.27;1.90;;;;;;;17.62;43.28;100048.47;5081559;28;20480;-74
2022/11/06 09:57:02;;;;;;;4.20;2.60;;;;;;;18.08;41.54;100048.13;5083438;28;20471;-74
2022/11/06 09:59:34;;;;;;;2.00;1.77;;;;;;;18.15;42.26;100040.06;5081861;28;20506;-73
2022/11/06 10:02:01;;;;;;;4.67;2.10;;;;;;;18.42;41.39;100041.94;5084322;28;20485;-72
2022/11/06 10:04:35;;;;;;;4.30;1.87;;;;;;;18.01;42.33;100039.94;5077731;28;20473;-74
2022/11/06 10:07:02;;;;;;;4.17;1.47;;;;;;;18.05;41.99;100032.28;5079744;28;20545;-73
2022/11/06 10:09:29;;;;;;;4.60;2.33;;;;;;;16.14;46.01;100031.28;5087609;28;20454;-74
2022/11/06 10:12:03;;;;;;;2.27;2.00;;;;;;;14.65;49.60;100031.28;5083691;28;20490;-73
2022/11/06 10:14:48;;;;;;;2.30;1.50;;;;;;;14.81;50.20;100027.69;5085712;28;20459;-74
2022/11/06 10:17:26;;;;;;;1.83;1.27;;;;;;;15.40;48.63;100024.56;5067325;28;20507;-74
2022/11/06 10:19:56;;;;;;;3.60;2.20;;;;;;;16.18;46.31;100025.34;5081367;28;20488;-72
2022/11/06 10:22:25;;;;;;;3.40;2.00;;;;;;;16.89;45.22;100016.88;5081956;28;20485;-74
2022/11/06 10:24:56;;;;;;;5.90;1.57;;;;;;;17.46;43.57;100011.69;5081249;28;20453;-74
2022/11/06 10:27:26;;;;;;;4.30;2.17;;;;;;;16.40;45.60;99995.78;5082179;28;20478;-74
2022/11/06 10:30:04;;;;;;;3.10;1.70;;;;;;;16.35;46.50;99992.78;5081745;28;20457;-70
2022/11/06 10:32:55;;;;;;;3.83;1.67;;;;;;;16.90;45.05;99990.69;5095250;28;20469;-73
2022/11/06 10:35:23;;;;;;;3.40;1.60;;;;;;;16.21;46.96;99986.34;5101071;28;20460;-72
2022/11/06 10:37:53;;;;;;;5.03;1.73;;;;;;;16.28;46.37;99983.78;5094640;28;20457;-73
2022/11/06 10:40:23;;;;;;;4.27;1.97;;;;;;;16.71;45.69;99982.09;5081731;28;20872;-74
2022/11/06 10:43:00;;;;;;;4.47;1.80;;;;;;;15.40;49.13;99978.75;5096356;28;20467;-71
2022/11/06 10:45:28;;;;;;;2.60;1.50;;;;;;;14.21;51.58;99966.28;5099746;28;20493;-74
2022/11/06 10:47:59;;;;;;;4.33;2.00;;;;;;;13.82;53.75;99972.38;5101559;28;20831;-73
2022/11/06 10:50:33;;;;;;;9.20;2.10;;;;;;;14.31;52.62;99965.09;5083662;28;20487;-74
2022/11/06 10:53:03;;;;;;;4.90;2.50;;;;;;;14.97;51.15;99972.13;5080883;28;20478;-72
2022/11/06 10:56:03;;;;;;;3.80;1.97;;;;;;;14.87;49.82;99965.06;5081233;28;20492;-74
2022/11/06 10:58:30;;;;;;;2.77;1.97;;;;;;;14.93;50.20;99952.78;5099502;28;20466;-73
2022/11/06 11:01:00;;;;;;;5.40;1.90;;;;;;;14.51;51.86;99964.69;5082469;28;20476;-73
2022/11/06 11:03:31;;;;;;;6.70;2.27;;;;;;;13.42;54.39;99958.78;5089625;28;20479;-74
2022/11/06 11:05:58;;;;;;;4.80;1.90;;;;;;;13.65;54.90;99958.13;5101391;28;20466;-74
2022/11/06 11:08:40;;;;;;;6.17;2.70;;;;;;;13.13;55.79;99957.34;5082499;28;20437;-73
2022/11/06 11:11:17;;;;;;;3.10;1.80;;;;;;;12.89;56.68;99955.44;5092800;28;20475;-74
2022/11/06 11:13:45;;;;;;;3.33;2.13;;;;;;;12.87;56.79;99940.50;5092414;28;20483;-73
2022/11/06 11:16:17;;;;;;;4.20;1.70;;;;;;;12.76;57.66;99947.84;5079751;28;20464;-73
2022/11/06 11:18:43;;;;;;;3.27;2.23;;;;;;;12.60;58.12;99947.78;5096595;28;20456;-74
2022/11/06 11:21:16;;;;;;;3.17;1.80;;;;;;;12.58;58.28;99939.06;5094023;28;20480;-74
2022/11/06 11:23:43;;;;;;;3.97;2.33;;;;;;;12.84;58.13;99938.16;5080189;28;20482;-73
2022/11/06 11:26:19;;;;;;;9.63;1.90;;;;;;;12.69;58.17;99935.25;5081150;28;20926;-73
2022/11/06 11:28:50;;;;;;;2.57;2.20;;;;;;;12.58;58.54;99933.69;5080700;28;20467;-72
2022/11/06 11:31:19;;;;;;;5.40;2.53;;;;;;;12.67;58.83;99927.34;5099083;28;20536;-74
2022/11/06 11:33:50;;;;;;;4.90;2.57;;;;;;;12.82;57.93;99914.16;5100692;28;20463;-74
2022/11/06 11:36:17;;;;;;;3.10;2.30;;;;;;;13.31;56.01;99906.22;5099868;28;20914;-74
2022/11/06 11:38:44;;;;;;;7.00;2.67;;;;;;;13.43;55.66;99909.41;5099923;28;20497;-74
2022/11/06 11:41:12;;;;;;;3.10;2.30;;;;;;;13.04;57.19;99909.16;5100409;28;20508;-73
2022/11/06 11:43:39;;;;;;;4.33;2.30;;;;;;;12.84;58.37;99905.97;5090617;28;20480;-74
2022/11/06 11:46:17;;;;;;;4.20;2.30;;;;;;;13.00;57.99;99898.78;5079088;28;20486;-74
2022/11/06 11:48:47;;;;;;;4.00;2.23;;;;;;;12.75;58.52;99889.84;5059527;28;20523;-75
2022/11/06 11:51:38;;;;;;;3.83;2.80;;;;;;;12.85;58.48;99888.88;5076085;28;20581;-74
2022/11/06 11:54:07;;;;;;;6.33;2.77;;;;;;;13.30;58.16;99883.03;5069971;28;20551;-74